sensor_id;sensor_type;location;lat;lon;timestamp;temperature;humidity
16511;DHT22;8368;48.772;8.754;2023-11-21T00:00:15;6.20;99.90
16511;DHT22;8368;48.772;8.754;2023-11-21T00:02:41;6.20;99.90
16511;DHT22;8368;48.772;8.754;2023-11-21T00:05:13;6.20;99.90
16511;DHT22;8368;48.772;8.754;2023-11-21T00:07:42;6.20;99.90
16511;DHT22;8368;48.772;8.754;2023-11-21T00:10:09;6.30;99.90
16511;DHT22;8368;48.772;8.754;2023-11-21T00:12:36;6.30;99.90
16511;DHT22;8368;48.772;8.754;2023-11-21T00:15:02;6.30;99.90
16511;DHT22;8368;48.772;8.754;2023-11-21T00:17:28;6.40;99.90
16511;DHT22;8368;48.772;8.754;2023-11-21T00:19:53;6.40;99.90
16511;DHT22;8368;48.772;8.754;2023-11-21T00:22:19;6.50;99.90
16511;DHT22;8368;48.772;8.754;2023-11-21T00:24:45;6.50;99.90
16511;DHT22;8368;48.772;8.754;2023-11-21T00:27:10;6.50;99.90
16511;DHT22;8368;48.772;8.754;2023-11-21T00:29:36;6.50;99.90
16511;DHT22;8368;48.772;8.754;2023-11-21T00:32:04;6.50;99.90
16511;DHT22;8368;48.772;8.754;2023-11-21T00:34:31;6.50;99.90
16511;DHT22;8368;48.772;8.754;2023-11-21T00:36:56;6.60;99.90
16511;DHT22;8368;48.772;8.754;2023-11-21T00:39:22;6.60;99.90
16511;DHT22;8368;48.772;8.754;2023-11-21T00:41:47;6.60;99.90
16511;DHT22;8368;48.772;8.754;2023-11-21T00:44:13;6.60;99.90
16511;DHT22;8368;48.772;8.754;2023-11-21T00:46:39;6.60;99.90
16511;DHT22;8368;48.772;8.754;2023-11-21T00:49:04;6.60;99.90
16511;DHT22;8368;48.772;8.754;2023-11-21T00:51:30;6.60;99.90
16511;DHT22;8368;48.772;8.754;2023-11-21T00:53:56;6.60;99.90
16511;DHT22;8368;48.772;8.754;2023-11-21T00:56:22;6.60;99.90
16511;DHT22;8368;48.772;8.754;2023-11-21T00:58:47;6.70;99.90
16511;DHT22;8368;48.772;8.754;2023-11-21T01:01:15;6.70;99.90
16511;DHT22;8368;48.772;8.754;2023-11-21T01:03:41;6.70;99.90
16511;DHT22;8368;48.772;8.754;2023-11-21T01:06:07;6.70;99.90
16511;DHT22;8368;48.772;8.754;2023-11-21T01:08:34;6.70;99.90
16511;DHT22;8368;48.772;8.754;2023-11-21T01:10:59;6.70;99.90
16511;DHT22;8368;48.772;8.754;2023-11-21T01:13:25;6.70;99.90
16511;DHT22;8368;48.772;8.754;2023-11-21T01:15:53;6.70;99.90
16511;DHT22;8368;48.772;8.754;2023-11-21T01:18:18;6.70;99.90
16511;DHT22;8368;48.772;8.754;2023-11-21T01:20:44;6.80;99.90
16511;DHT22;8368;48.772;8.754;2023-11-21T01:23:12;6.80;99.90
16511;DHT22;8368;48.772;8.754;2023-11-21T01:25:38;6.80;99.90
16511;DHT22;8368;48.772;8.754;2023-11-21T01:28:03;6.80;99.90
16511;DHT22;8368;48.772;8.754;2023-11-21T01:30:29;6.80;99.90
16511;DHT22;8368;48.772;8.754;2023-11-21T01:32:54;6.80;99.90
16511;DHT22;8368;48.772;8.754;2023-11-21T01:35:21;6.70;99.90
16511;DHT22;8368;48.772;8.754;2023-11-21T01:37:46;6.80;99.90
16511;DHT22;8368;48.772;8.754;2023-11-21T01:40:13;6.70;99.90
16511;DHT22;8368;48.772;8.754;2023-11-21T01:42:39;6.80;99.90
16511;DHT22;8368;48.772;8.754;2023-11-21T01:45:06;6.80;99.90
16511;DHT22;8368;48.772;8.754;2023-11-21T01:47:33;6.80;99.90
16511;DHT22;8368;48.772;8.754;2023-11-21T01:49:59;6.80;99.90
16511;DHT22;8368;48.772;8.754;2023-11-21T01:52:25;6.70;99.90
16511;DHT22;8368;48.772;8.754;2023-11-21T01:54:51;6.80;99.90
16511;DHT22;8368;48.772;8.754;2023-11-21T01:57:18;6.80;99.90
16511;DHT22;8368;48.772;8.754;2023-11-21T01:59:44;6.80;99.90
16511;DHT22;8368;48.772;8.754;2023-11-21T02:02:11;6.80;99.90
16511;DHT22;8368;48.772;8.754;2023-11-21T02:04:37;6.80;99.90
16511;DHT22;8368;48.772;8.754;2023-11-21T02:07:03;6.80;99.90
16511;DHT22;8368;48.772;8.754;2023-11-21T02:09:31;6.80;99.90
16511;DHT22;8368;48.772;8.754;2023-11-21T02:11:58;6.80;99.90
16511;DHT22;8368;48.772;8.754;2023-11-21T02:14:27;6.80;99.90
16511;DHT22;8368;48.772;8.754;2023-11-21T02:16:54;6.90;99.90
16511;DHT22;8368;48.772;8.754;2023-11-21T02:19:21;6.90;99.90
16511;DHT22;8368;48.772;8.754;2023-11-21T02:21:59;6.90;99.90
16511;DHT22;8368;48.772;8.754;2023-11-21T02:24:26;6.80;99.90
16511;DHT22;8368;48.772;8.754;2023-11-21T02:26:52;6.90;99.90
16511;DHT22;8368;48.772;8.754;2023-11-21T02:29:18;6.80;99.90
16511;DHT22;8368;48.772;8.754;2023-11-21T02:31:47;6.80;99.90
16511;DHT22;8368;48.772;8.754;2023-11-21T02:34:17;6.80;99.90
16511;DHT22;8368;48.772;8.754;2023-11-21T02:36:46;6.80;99.90
16511;DHT22;8368;48.772;8.754;2023-11-21T02:39:15;6.80;99.90
16511;DHT22;8368;48.772;8.754;2023-11-21T02:41:42;6.80;99.90
16511;DHT22;8368;48.772;8.754;2023-11-21T02:44:07;6.90;99.90
16511;DHT22;8368;48.772;8.754;2023-11-21T02:46:34;6.80;99.90
16511;DHT22;8368;48.772;8.754;2023-11-21T02:49:00;6.90;99.90
16511;DHT22;8368;48.772;8.754;2023-11-21T02:51:26;6.80;99.90
16511;DHT22;8368;48.772;8.754;2023-11-21T02:53:52;6.90;99.90
16511;DHT22;8368;48.772;8.754;2023-11-21T02:56:17;6.80;99.90
16511;DHT22;8368;48.772;8.754;2023-11-21T02:58:43;6.80;99.90
16511;DHT22;8368;48.772;8.754;2023-11-21T03:01:09;6.80;99.90
16511;DHT22;8368;48.772;8.754;2023-11-21T03:03:37;6.80;99.90
16511;DHT22;8368;48.772;8.754;2023-11-21T03:06:04;6.80;99.90
16511;DHT22;8368;48.772;8.754;2023-11-21T03:08:30;6.80;99.90
16511;DHT22;8368;48.772;8.754;2023-11-21T03:10:55;6.80;99.90
16511;DHT22;8368;48.772;8.754;2023-11-21T03:13:21;6.80;99.90
16511;DHT22;8368;48.772;8.754;2023-11-21T03:15:46;6.80;99.90
16511;DHT22;8368;48.772;8.754;2023-11-21T03:18:12;6.80;99.90
16511;DHT22;8368;48.772;8.754;2023-11-21T03:20:38;6.80;99.90
16511;DHT22;8368;48.772;8.754;2023-11-21T03:23:04;6.90;99.90
16511;DHT22;8368;48.772;8.754;2023-11-21T03:25:30;6.90;99.90
16511;DHT22;8368;48.772;8.754;2023-11-21T03:27:56;6.90;99.90
16511;DHT22;8368;48.772;8.754;2023-11-21T03:30:22;6.90;99.90
16511;DHT22;8368;48.772;8.754;2023-11-21T03:32:47;6.90;99.90
16511;DHT22;8368;48.772;8.754;2023-11-21T03:35:13;6.90;99.90
16511;DHT22;8368;48.772;8.754;2023-11-21T03:37:38;6.90;99.90
16511;DHT22;8368;48.772;8.754;2023-11-21T03:40:07;6.80;99.90
16511;DHT22;8368;48.772;8.754;2023-11-21T03:42:34;6.80;99.90
16511;DHT22;8368;48.772;8.754;2023-11-21T03:45:00;6.80;99.90
16511;DHT22;8368;48.772;8.754;2023-11-21T03:47:27;6.80;99.90
16511;DHT22;8368;48.772;8.754;2023-11-21T03:49:53;6.80;99.90
16511;DHT22;8368;48.772;8.754;2023-11-21T03:52:18;6.80;99.90
16511;DHT22;8368;48.772;8.754;2023-11-21T03:54:44;6.80;99.90
16511;DHT22;8368;48.772;8.754;2023-11-21T03:57:10;6.80;99.90
16511;DHT22;8368;48.772;8.754;2023-11-21T03:59:35;6.80;99.90
16511;DHT22;8368;48.772;8.754;2023-11-21T04:02:01;6.80;99.90
16511;DHT22;8368;48.772;8.754;2023-11-21T04:04:26;6.80;99.90
16511;DHT22;8368;48.772;8.754;2023-11-21T04:06:52;6.80;99.90
16511;DHT22;8368;48.772;8.754;2023-11-21T04:09:17;6.80;99.90
16511;DHT22;8368;48.772;8.754;2023-11-21T04:11:43;6.80;99.90
16511;DHT22;8368;48.772;8.754;2023-11-21T04:14:10;6.80;99.90
16511;DHT22;8368;48.772;8.754;2023-11-21T04:16:36;6.80;99.90
16511;DHT22;8368;48.772;8.754;2023-11-21T04:19:01;6.80;99.90
16511;DHT22;8368;48.772;8.754;2023-11-21T04:21:27;6.80;99.90
16511;DHT22;8368;48.772;8.754;2023-11-21T04:23:52;6.80;99.90
16511;DHT22;8368;48.772;8.754;2023-11-21T04:26:18;6.80;99.90
16511;DHT22;8368;48.772;8.754;2023-11-21T04:28:43;6.80;99.90
16511;DHT22;8368;48.772;8.754;2023-11-21T04:31:10;6.80;99.90
16511;DHT22;8368;48.772;8.754;2023-11-21T04:33:35;6.80;99.90
16511;DHT22;8368;48.772;8.754;2023-11-21T04:36:01;6.80;99.90
16511;DHT22;8368;48.772;8.754;2023-11-21T04:38:26;6.80;99.90
16511;DHT22;8368;48.772;8.754;2023-11-21T04:40:52;6.80;99.90
16511;DHT22;8368;48.772;8.754;2023-11-21T04:43:17;6.80;99.90
16511;DHT22;8368;48.772;8.754;2023-11-21T04:45:43;6.80;99.90
16511;DHT22;8368;48.772;8.754;2023-11-21T04:48:09;6.80;99.90
16511;DHT22;8368;48.772;8.754;2023-11-21T04:50:35;6.80;99.90
16511;DHT22;8368;48.772;8.754;2023-11-21T04:53:00;6.80;99.90
16511;DHT22;8368;48.772;8.754;2023-11-21T04:55:26;6.70;99.90
16511;DHT22;8368;48.772;8.754;2023-11-21T04:57:53;6.80;99.90
16511;DHT22;8368;48.772;8.754;2023-11-21T05:00:19;6.90;99.90
16511;DHT22;8368;48.772;8.754;2023-11-21T05:02:46;6.80;99.90
16511;DHT22;8368;48.772;8.754;2023-11-21T05:05:12;6.80;99.90
16511;DHT22;8368;48.772;8.754;2023-11-21T05:07:39;6.80;99.90
16511;DHT22;8368;48.772;8.754;2023-11-21T05:10:05;6.80;99.90
16511;DHT22;8368;48.772;8.754;2023-11-21T05:12:37;6.80;99.90
16511;DHT22;8368;48.772;8.754;2023-11-21T05:15:04;6.80;99.90
16511;DHT22;8368;48.772;8.754;2023-11-21T05:17:33;6.80;99.90
16511;DHT22;8368;48.772;8.754;2023-11-21T05:19:59;6.80;99.90
16511;DHT22;8368;48.772;8.754;2023-11-21T05:22:29;6.80;99.90
16511;DHT22;8368;48.772;8.754;2023-11-21T05:24:54;6.80;99.90
16511;DHT22;8368;48.772;8.754;2023-11-21T05:27:20;6.80;99.90
16511;DHT22;8368;48.772;8.754;2023-11-21T05:29:45;6.80;99.90
16511;DHT22;8368;48.772;8.754;2023-11-21T05:32:11;6.80;99.90
16511;DHT22;8368;48.772;8.754;2023-11-21T05:34:36;6.80;99.90
16511;DHT22;8368;48.772;8.754;2023-11-21T05:37:02;6.80;99.90
16511;DHT22;8368;48.772;8.754;2023-11-21T05:39:27;6.80;99.90
16511;DHT22;8368;48.772;8.754;2023-11-21T05:41:53;6.80;99.90
16511;DHT22;8368;48.772;8.754;2023-11-21T05:44:19;6.80;99.90
16511;DHT22;8368;48.772;8.754;2023-11-21T05:46:44;6.80;99.90
16511;DHT22;8368;48.772;8.754;2023-11-21T05:49:10;6.80;99.90
16511;DHT22;8368;48.772;8.754;2023-11-21T05:51:37;6.90;99.90
16511;DHT22;8368;48.772;8.754;2023-11-21T05:54:03;6.90;99.90
16511;DHT22;8368;48.772;8.754;2023-11-21T05:56:28;6.90;99.90
16511;DHT22;8368;48.772;8.754;2023-11-21T05:58:54;6.80;99.90
16511;DHT22;8368;48.772;8.754;2023-11-21T06:01:19;6.90;99.90
16511;DHT22;8368;48.772;8.754;2023-11-21T06:03:45;6.80;99.90
16511;DHT22;8368;48.772;8.754;2023-11-21T06:06:11;6.80;99.90
16511;DHT22;8368;48.772;8.754;2023-11-21T06:08:36;6.80;99.90
16511;DHT22;8368;48.772;8.754;2023-11-21T06:11:02;6.80;99.90
16511;DHT22;8368;48.772;8.754;2023-11-21T06:13:27;6.80;99.90
16511;DHT22;8368;48.772;8.754;2023-11-21T06:15:53;6.80;99.90
16511;DHT22;8368;48.772;8.754;2023-11-21T06:18:19;6.80;99.90
16511;DHT22;8368;48.772;8.754;2023-11-21T06:20:45;6.80;99.90
16511;DHT22;8368;48.772;8.754;2023-11-21T06:23:11;6.80;99.90
16511;DHT22;8368;48.772;8.754;2023-11-21T06:25:36;6.90;99.90
16511;DHT22;8368;48.772;8.754;2023-11-21T06:28:02;6.90;99.90
16511;DHT22;8368;48.772;8.754;2023-11-21T06:30:28;6.80;99.90
16511;DHT22;8368;48.772;8.754;2023-11-21T06:32:54;6.90;99.90
16511;DHT22;8368;48.772;8.754;2023-11-21T06:35:20;6.90;99.90
16511;DHT22;8368;48.772;8.754;2023-11-21T06:37:46;6.90;99.90
16511;DHT22;8368;48.772;8.754;2023-11-21T06:40:13;6.90;99.90
16511;DHT22;8368;48.772;8.754;2023-11-21T06:42:43;6.90;99.90
16511;DHT22;8368;48.772;8.754;2023-11-21T06:45:10;6.90;99.90
16511;DHT22;8368;48.772;8.754;2023-11-21T06:47:36;6.90;99.90
16511;DHT22;8368;48.772;8.754;2023-11-21T06:50:03;6.90;99.90
16511;DHT22;8368;48.772;8.754;2023-11-21T06:52:29;6.90;99.90
16511;DHT22;8368;48.772;8.754;2023-11-21T06:54:54;6.90;99.90
16511;DHT22;8368;48.772;8.754;2023-11-21T06:57:20;6.90;99.90
16511;DHT22;8368;48.772;8.754;2023-11-21T06:59:45;7.00;99.90
16511;DHT22;8368;48.772;8.754;2023-11-21T07:02:11;7.00;99.90
16511;DHT22;8368;48.772;8.754;2023-11-21T07:04:37;7.00;99.90
16511;DHT22;8368;48.772;8.754;2023-11-21T07:07:03;7.00;99.90
16511;DHT22;8368;48.772;8.754;2023-11-21T07:09:29;7.00;99.90
16511;DHT22;8368;48.772;8.754;2023-11-21T07:11:55;7.00;99.90
16511;DHT22;8368;48.772;8.754;2023-11-21T07:14:21;7.00;99.90
16511;DHT22;8368;48.772;8.754;2023-11-21T07:16:47;7.00;99.90
16511;DHT22;8368;48.772;8.754;2023-11-21T07:19:13;7.00;99.90
16511;DHT22;8368;48.772;8.754;2023-11-21T07:21:39;7.00;99.90
16511;DHT22;8368;48.772;8.754;2023-11-21T07:24:06;7.10;99.90
16511;DHT22;8368;48.772;8.754;2023-11-21T07:26:33;7.10;99.90
16511;DHT22;8368;48.772;8.754;2023-11-21T07:28:59;7.00;99.90
16511;DHT22;8368;48.772;8.754;2023-11-21T07:31:25;7.10;99.90
16511;DHT22;8368;48.772;8.754;2023-11-21T07:33:51;7.00;99.90
16511;DHT22;8368;48.772;8.754;2023-11-21T07:36:17;7.10;99.90
16511;DHT22;8368;48.772;8.754;2023-11-21T07:38:49;7.00;99.90
16511;DHT22;8368;48.772;8.754;2023-11-21T07:41:15;7.00;99.90
16511;DHT22;8368;48.772;8.754;2023-11-21T07:43:41;7.10;99.90
16511;DHT22;8368;48.772;8.754;2023-11-21T07:46:07;7.10;99.90
16511;DHT22;8368;48.772;8.754;2023-11-21T07:48:33;7.10;99.90
16511;DHT22;8368;48.772;8.754;2023-11-21T07:51:00;7.10;99.90
16511;DHT22;8368;48.772;8.754;2023-11-21T07:53:26;7.10;99.90
16511;DHT22;8368;48.772;8.754;2023-11-21T07:55:54;7.20;99.90
16511;DHT22;8368;48.772;8.754;2023-11-21T07:58:20;7.20;99.90
16511;DHT22;8368;48.772;8.754;2023-11-21T08:00:45;7.20;99.90
16511;DHT22;8368;48.772;8.754;2023-11-21T08:03:13;7.30;99.90
16511;DHT22;8368;48.772;8.754;2023-11-21T08:05:39;7.30;99.90
16511;DHT22;8368;48.772;8.754;2023-11-21T08:08:05;7.30;99.90
16511;DHT22;8368;48.772;8.754;2023-11-21T08:10:30;7.40;99.90
16511;DHT22;8368;48.772;8.754;2023-11-21T08:12:56;7.40;99.90
16511;DHT22;8368;48.772;8.754;2023-11-21T08:15:21;7.50;99.90
16511;DHT22;8368;48.772;8.754;2023-11-21T08:17:47;7.50;99.90
16511;DHT22;8368;48.772;8.754;2023-11-21T08:20:13;7.60;99.90
16511;DHT22;8368;48.772;8.754;2023-11-21T08:22:43;7.60;99.90
16511;DHT22;8368;48.772;8.754;2023-11-21T08:25:09;7.60;99.90
16511;DHT22;8368;48.772;8.754;2023-11-21T08:27:40;7.70;99.90
16511;DHT22;8368;48.772;8.754;2023-11-21T08:30:06;7.70;99.90
16511;DHT22;8368;48.772;8.754;2023-11-21T08:32:32;7.80;99.90
16511;DHT22;8368;48.772;8.754;2023-11-21T08:34:59;7.80;99.90
16511;DHT22;8368;48.772;8.754;2023-11-21T08:37:25;7.80;99.90
16511;DHT22;8368;48.772;8.754;2023-11-21T08:39:52;7.90;99.90
16511;DHT22;8368;48.772;8.754;2023-11-21T08:42:18;7.90;99.90
16511;DHT22;8368;48.772;8.754;2023-11-21T08:44:44;8.00;99.90
16511;DHT22;8368;48.772;8.754;2023-11-21T08:47:09;8.00;99.90
16511;DHT22;8368;48.772;8.754;2023-11-21T08:49:35;8.10;99.90
16511;DHT22;8368;48.772;8.754;2023-11-21T08:52:01;8.20;99.90
16511;DHT22;8368;48.772;8.754;2023-11-21T08:54:26;8.20;99.90
16511;DHT22;8368;48.772;8.754;2023-11-21T08:56:53;8.20;99.90
16511;DHT22;8368;48.772;8.754;2023-11-21T08:59:18;8.20;99.90
16511;DHT22;8368;48.772;8.754;2023-11-21T09:01:45;8.30;99.90
16511;DHT22;8368;48.772;8.754;2023-11-21T09:04:11;8.40;99.90
16511;DHT22;8368;48.772;8.754;2023-11-21T09:06:38;8.40;99.90
16511;DHT22;8368;48.772;8.754;2023-11-21T09:09:03;8.40;99.90
16511;DHT22;8368;48.772;8.754;2023-11-21T09:11:34;8.40;99.90
16511;DHT22;8368;48.772;8.754;2023-11-21T09:14:00;8.40;99.90
16511;DHT22;8368;48.772;8.754;2023-11-21T09:16:25;8.30;99.90
16511;DHT22;8368;48.772;8.754;2023-11-21T09:18:51;8.30;99.90
16511;DHT22;8368;48.772;8.754;2023-11-21T09:21:16;8.20;99.90
16511;DHT22;8368;48.772;8.754;2023-11-21T09:23:44;8.20;99.90
16511;DHT22;8368;48.772;8.754;2023-11-21T09:26:10;8.20;99.90
16511;DHT22;8368;48.772;8.754;2023-11-21T09:28:35;8.30;99.90
16511;DHT22;8368;48.772;8.754;2023-11-21T09:31:04;8.30;99.90
16511;DHT22;8368;48.772;8.754;2023-11-21T09:33:33;8.30;99.90
16511;DHT22;8368;48.772;8.754;2023-11-21T09:35:59;8.30;99.90
16511;DHT22;8368;48.772;8.754;2023-11-21T09:38:25;8.30;99.90
16511;DHT22;8368;48.772;8.754;2023-11-21T09:40:51;8.30;99.90
16511;DHT22;8368;48.772;8.754;2023-11-21T09:43:18;8.30;99.90
16511;DHT22;8368;48.772;8.754;2023-11-21T09:45:48;8.20;99.90
16511;DHT22;8368;48.772;8.754;2023-11-21T09:48:20;8.20;99.90
16511;DHT22;8368;48.772;8.754;2023-11-21T09:50:47;8.20;99.90
16511;DHT22;8368;48.772;8.754;2023-11-21T09:53:22;8.20;99.90
16511;DHT22;8368;48.772;8.754;2023-11-21T09:55:51;8.20;99.90
16511;DHT22;8368;48.772;8.754;2023-11-21T09:58:18;8.10;99.90
16511;DHT22;8368;48.772;8.754;2023-11-21T10:00:49;8.10;99.90
16511;DHT22;8368;48.772;8.754;2023-11-21T10:03:15;8.10;99.90
16511;DHT22;8368;48.772;8.754;2023-11-21T10:05:45;8.20;99.90
16511;DHT22;8368;48.772;8.754;2023-11-21T10:08:13;8.20;99.90
16511;DHT22;8368;48.772;8.754;2023-11-21T10:10:44;8.30;99.90
16511;DHT22;8368;48.772;8.754;2023-11-21T10:13:12;8.40;99.90
16511;DHT22;8368;48.772;8.754;2023-11-21T10:15:38;8.40;99.90
16511;DHT22;8368;48.772;8.754;2023-11-21T10:18:04;8.50;99.90
16511;DHT22;8368;48.772;8.754;2023-11-21T10:20:33;8.50;99.90
16511;DHT22;8368;48.772;8.754;2023-11-21T10:23:03;8.50;99.90
16511;DHT22;8368;48.772;8.754;2023-11-21T10:25:29;8.50;99.90
16511;DHT22;8368;48.772;8.754;2023-11-21T10:27:59;8.50;99.90
16511;DHT22;8368;48.772;8.754;2023-11-21T10:30:35;8.50;99.90
16511;DHT22;8368;48.772;8.754;2023-11-21T10:33:03;8.40;99.90
16511;DHT22;8368;48.772;8.754;2023-11-21T10:35:48;8.40;99.90
16511;DHT22;8368;48.772;8.754;2023-11-21T10:38:19;8.40;99.90
16511;DHT22;8368;48.772;8.754;2023-11-21T10:40:46;8.20;99.90
16511;DHT22;8368;48.772;8.754;2023-11-21T10:43:13;8.10;99.90
16511;DHT22;8368;48.772;8.754;2023-11-21T10:45:41;8.10;99.90
16511;DHT22;8368;48.772;8.754;2023-11-21T10:48:08;8.00;99.90
16511;DHT22;8368;48.772;8.754;2023-11-21T10:50:35;8.00;99.90
16511;DHT22;8368;48.772;8.754;2023-11-21T10:53:04;8.00;99.90
16511;DHT22;8368;48.772;8.754;2023-11-21T10:55:31;7.90;99.90
16511;DHT22;8368;48.772;8.754;2023-11-21T10:58:02;7.90;99.90
16511;DHT22;8368;48.772;8.754;2023-11-21T11:00:29;7.90;99.90
16511;DHT22;8368;48.772;8.754;2023-11-21T11:02:55;8.00;99.90
16511;DHT22;8368;48.772;8.754;2023-11-21T11:05:22;7.90;99.90
16511;DHT22;8368;48.772;8.754;2023-11-21T11:07:52;7.80;99.90
16511;DHT22;8368;48.772;8.754;2023-11-21T11:10:25;7.80;99.90
16511;DHT22;8368;48.772;8.754;2023-11-21T11:12:56;7.80;99.90
16511;DHT22;8368;48.772;8.754;2023-11-21T11:15:25;7.80;99.90
16511;DHT22;8368;48.772;8.754;2023-11-21T11:17:52;7.80;99.90
16511;DHT22;8368;48.772;8.754;2023-11-21T11:20:23;7.80;99.90
16511;DHT22;8368;48.772;8.754;2023-11-21T11:28:35;7.80;99.90
16511;DHT22;8368;48.772;8.754;2023-11-21T11:36:55;7.80;99.90
16511;DHT22;8368;48.772;8.754;2023-11-21T11:39:39;7.80;99.90
16511;DHT22;8368;48.772;8.754;2023-11-21T11:42:17;7.80;99.90
16511;DHT22;8368;48.772;8.754;2023-11-21T11:47:22;7.80;99.90
16511;DHT22;8368;48.772;8.754;2023-11-21T11:50:02;7.80;99.90
16511;DHT22;8368;48.772;8.754;2023-11-21T11:52:49;7.80;99.90
16511;DHT22;8368;48.772;8.754;2023-11-21T11:55:18;7.80;99.90
16511;DHT22;8368;48.772;8.754;2023-11-21T11:57:45;7.80;99.90
16511;DHT22;8368;48.772;8.754;2023-11-21T12:00:13;7.80;99.90
16511;DHT22;8368;48.772;8.754;2023-11-21T12:02:44;7.80;99.90
16511;DHT22;8368;48.772;8.754;2023-11-21T12:05:16;7.70;99.90
16511;DHT22;8368;48.772;8.754;2023-11-21T12:10:15;7.80;99.90
16511;DHT22;8368;48.772;8.754;2023-11-21T12:12:57;7.80;99.90
16511;DHT22;8368;48.772;8.754;2023-11-21T12:15:23;7.70;99.90
16511;DHT22;8368;48.772;8.754;2023-11-21T12:17:52;7.70;99.90
16511;DHT22;8368;48.772;8.754;2023-11-21T12:20:22;7.70;99.90
16511;DHT22;8368;48.772;8.754;2023-11-21T12:22:52;7.80;99.90
16511;DHT22;8368;48.772;8.754;2023-11-21T12:25:25;7.80;99.90
16511;DHT22;8368;48.772;8.754;2023-11-21T12:27:55;7.80;99.90
16511;DHT22;8368;48.772;8.754;2023-11-21T12:30:23;7.70;99.90
16511;DHT22;8368;48.772;8.754;2023-11-21T12:32:53;7.70;99.90
16511;DHT22;8368;48.772;8.754;2023-11-21T12:35:20;7.60;99.90
16511;DHT22;8368;48.772;8.754;2023-11-21T12:37:47;7.60;99.90
16511;DHT22;8368;48.772;8.754;2023-11-21T12:40:14;7.70;99.90
16511;DHT22;8368;48.772;8.754;2023-11-21T12:42:44;7.70;99.90
16511;DHT22;8368;48.772;8.754;2023-11-21T12:47:50;7.80;99.90
16511;DHT22;8368;48.772;8.754;2023-11-21T12:50:24;7.80;99.90
16511;DHT22;8368;48.772;8.754;2023-11-21T12:52:54;7.80;99.90
16511;DHT22;8368;48.772;8.754;2023-11-21T12:55:23;7.70;99.90
16511;DHT22;8368;48.772;8.754;2023-11-21T12:57:50;7.70;99.90
16511;DHT22;8368;48.772;8.754;2023-11-21T13:00:52;7.80;99.90
16511;DHT22;8368;48.772;8.754;2023-11-21T13:03:19;7.90;99.90
16511;DHT22;8368;48.772;8.754;2023-11-21T13:05:49;7.90;99.90
16511;DHT22;8368;48.772;8.754;2023-11-21T13:08:20;8.00;99.90
16511;DHT22;8368;48.772;8.754;2023-11-21T13:10:53;8.00;99.90
16511;DHT22;8368;48.772;8.754;2023-11-21T13:13:20;7.90;99.90
16511;DHT22;8368;48.772;8.754;2023-11-21T13:15:56;7.80;99.90
16511;DHT22;8368;48.772;8.754;2023-11-21T13:18:23;7.80;99.90
16511;DHT22;8368;48.772;8.754;2023-11-21T13:20:49;7.70;99.90
16511;DHT22;8368;48.772;8.754;2023-11-21T13:23:15;7.70;99.90
16511;DHT22;8368;48.772;8.754;2023-11-21T13:25:42;7.70;99.90
16511;DHT22;8368;48.772;8.754;2023-11-21T13:28:11;7.70;99.90
16511;DHT22;8368;48.772;8.754;2023-11-21T13:30:36;7.60;99.90
16511;DHT22;8368;48.772;8.754;2023-11-21T13:33:03;7.50;99.90
16511;DHT22;8368;48.772;8.754;2023-11-21T13:35:36;7.50;99.90
16511;DHT22;8368;48.772;8.754;2023-11-21T13:38:10;7.50;99.90
16511;DHT22;8368;48.772;8.754;2023-11-21T13:40:37;7.50;99.90
16511;DHT22;8368;48.772;8.754;2023-11-21T13:43:10;7.40;99.90
16511;DHT22;8368;48.772;8.754;2023-11-21T13:45:37;7.50;99.90
16511;DHT22;8368;48.772;8.754;2023-11-21T13:48:05;7.50;99.90
16511;DHT22;8368;48.772;8.754;2023-11-21T13:50:38;7.50;99.90
16511;DHT22;8368;48.772;8.754;2023-11-21T13:53:04;7.50;99.90
16511;DHT22;8368;48.772;8.754;2023-11-21T13:55:41;7.50;99.90
16511;DHT22;8368;48.772;8.754;2023-11-21T13:58:07;7.60;99.90
16511;DHT22;8368;48.772;8.754;2023-11-21T14:00:37;7.60;99.90
16511;DHT22;8368;48.772;8.754;2023-11-21T14:03:12;7.60;99.90
16511;DHT22;8368;48.772;8.754;2023-11-21T14:05:47;7.70;99.90
16511;DHT22;8368;48.772;8.754;2023-11-21T14:08:19;7.80;99.90
16511;DHT22;8368;48.772;8.754;2023-11-21T14:10:46;7.70;99.90
16511;DHT22;8368;48.772;8.754;2023-11-21T14:13:17;7.70;99.90
16511;DHT22;8368;48.772;8.754;2023-11-21T14:15:42;7.70;99.90
16511;DHT22;8368;48.772;8.754;2023-11-21T14:18:11;7.70;99.90
16511;DHT22;8368;48.772;8.754;2023-11-21T14:20:39;7.70;99.90
16511;DHT22;8368;48.772;8.754;2023-11-21T14:23:06;7.70;99.90
16511;DHT22;8368;48.772;8.754;2023-11-21T14:25:35;7.70;99.90
16511;DHT22;8368;48.772;8.754;2023-11-21T14:28:05;7.70;99.90
16511;DHT22;8368;48.772;8.754;2023-11-21T14:30:37;7.70;99.90
16511;DHT22;8368;48.772;8.754;2023-11-21T14:33:04;7.70;99.90
16511;DHT22;8368;48.772;8.754;2023-11-21T14:35:29;7.70;99.90
16511;DHT22;8368;48.772;8.754;2023-11-21T14:37:59;7.70;99.90
16511;DHT22;8368;48.772;8.754;2023-11-21T14:40:26;7.70;99.90
16511;DHT22;8368;48.772;8.754;2023-11-21T14:42:54;7.60;99.90
16511;DHT22;8368;48.772;8.754;2023-11-21T14:45:22;7.60;99.90
16511;DHT22;8368;48.772;8.754;2023-11-21T14:47:51;7.60;99.90
16511;DHT22;8368;48.772;8.754;2023-11-21T14:50:35;7.60;99.90
16511;DHT22;8368;48.772;8.754;2023-11-21T14:53:07;7.50;99.90
16511;DHT22;8368;48.772;8.754;2023-11-21T14:55:33;7.40;99.90
16511;DHT22;8368;48.772;8.754;2023-11-21T14:58:18;7.40;99.90
16511;DHT22;8368;48.772;8.754;2023-11-21T15:00:57;7.30;99.90
16511;DHT22;8368;48.772;8.754;2023-11-21T15:03:27;7.30;99.90
16511;DHT22;8368;48.772;8.754;2023-11-21T15:06:00;7.20;99.90
16511;DHT22;8368;48.772;8.754;2023-11-21T15:08:50;7.20;99.90
16511;DHT22;8368;48.772;8.754;2023-11-21T15:11:39;7.20;99.90
16511;DHT22;8368;48.772;8.754;2023-11-21T15:14:06;7.30;99.90
16511;DHT22;8368;48.772;8.754;2023-11-21T15:16:37;7.30;99.90
16511;DHT22;8368;48.772;8.754;2023-11-21T15:19:06;7.30;99.90
16511;DHT22;8368;48.772;8.754;2023-11-21T15:21:32;7.30;99.90
16511;DHT22;8368;48.772;8.754;2023-11-21T15:23:58;7.30;99.90
16511;DHT22;8368;48.772;8.754;2023-11-21T15:26:24;7.30;99.90
16511;DHT22;8368;48.772;8.754;2023-11-21T15:28:49;7.30;99.90
16511;DHT22;8368;48.772;8.754;2023-11-21T15:31:15;7.30;99.90
16511;DHT22;8368;48.772;8.754;2023-11-21T15:33:45;7.20;99.90
16511;DHT22;8368;48.772;8.754;2023-11-21T15:36:11;7.20;99.90
16511;DHT22;8368;48.772;8.754;2023-11-21T15:38:36;7.30;99.90
16511;DHT22;8368;48.772;8.754;2023-11-21T15:41:03;7.30;99.90
16511;DHT22;8368;48.772;8.754;2023-11-21T15:43:28;7.30;99.90
16511;DHT22;8368;48.772;8.754;2023-11-21T15:45:54;7.30;99.90
16511;DHT22;8368;48.772;8.754;2023-11-21T15:48:21;7.30;99.90
16511;DHT22;8368;48.772;8.754;2023-11-21T15:50:47;7.30;99.90
16511;DHT22;8368;48.772;8.754;2023-11-21T15:53:13;7.30;99.90
16511;DHT22;8368;48.772;8.754;2023-11-21T15:55:39;7.30;99.90
16511;DHT22;8368;48.772;8.754;2023-11-21T15:58:08;7.30;99.90
16511;DHT22;8368;48.772;8.754;2023-11-21T16:00:34;7.40;99.90
16511;DHT22;8368;48.772;8.754;2023-11-21T16:03:00;7.30;99.90
16511;DHT22;8368;48.772;8.754;2023-11-21T16:05:26;7.30;99.90
16511;DHT22;8368;48.772;8.754;2023-11-21T16:07:51;7.30;99.90
16511;DHT22;8368;48.772;8.754;2023-11-21T16:10:17;7.30;99.90
16511;DHT22;8368;48.772;8.754;2023-11-21T16:12:44;7.30;99.90
16511;DHT22;8368;48.772;8.754;2023-11-21T16:15:10;7.30;99.90
16511;DHT22;8368;48.772;8.754;2023-11-21T16:17:37;7.40;99.90
16511;DHT22;8368;48.772;8.754;2023-11-21T16:20:04;7.40;99.90
16511;DHT22;8368;48.772;8.754;2023-11-21T16:22:38;7.40;99.90